Impacts TAF Board INFO
FOR SITUATIONAL AWARENESS. NOT TO BE USED FOR FLIGHT PLANNING PURPOSES.
IDs:

KEWR - Newark Intl, NJ, US

Issued at 1335 UTC 16 Jan 2018
Updated at 1521 UTC 16 Jan 2018
Potential Impact None Slight Moderate High
Time<<17/16Z 17/17Z 17/18Z 17/19Z 17/20Z 17/21Z 17/22Z 17/23Z 18/00Z 18/01Z 18/02Z 18/03Z 18/04Z
Type PRVL PRVL
VIS 2 2
CIG 10 10
Cover OVC OVC
FltCat IFR IFR
WX -SN BR -SN BR
WDir 330 330
WSpd 9 9
WGst -- --

Raw TAF
KEWR 161335Z 1614/1718 VRB04KT P6SM OVC015
  TEMPO 1614/1616 SCT015 BKN030
  FM162100 15006KT P6SM OVC015
  FM170000 VRB04KT P6SM OVC015
  PROB30 1700/1705 6SM -SN
  FM170500 VRB04KT 5SM -SN OVC010
  FM170800 VRB05KT 1 1/2SM -SN BR OVC008
  FM171500 33009KT 2SM -SN BR OVC010


METAR Board
Radar Display
Forecast Discussion

FOR SITUATIONAL AWARENESS. NOT TO BE USED FOR FLIGHT PLANNING PURPOSES.